Coal Creek, Washington
Current Conditions -  °F | °C
As of 1:53 AM on Tuesday 21 Oct 2014 (Local Time) from KRNT Reporting Station
Light Rain Light Rain  
Wind Chill: 54°   Ceiling: 4600
Heat Index: 54°   Visibility: 6mi
Dew Point: 52°   Wind: 3mph
Humidity: 93%   Direction: 120°ESE
Pressure: 29.82"   Gusts: NA
Location:  47.4953°N, 121.984°W
Report Text: KRNT 210853Z AUTO 12003KT 6SM -RA BR BKN046 BKN050 OVC065 12/11 A2982 RMK AO2 RAB39 SLP104 P0001 60001 T01220111 53007
Loading
Personal Weather Stations






























Interactive Weather Map
Tropical Storm Tracking
New forecast layout! Learn more

10-Day Weather Forecast

Advertisements
Track Severe Weather on mobile